Time;durP1;ratioP1;P1;durP2;ratioP2;P2;SDS_P1;SDS_P2;PMS_P1;PMS_P2;Temp;Humidity;BMP_temperature;BMP_pressure;BME280_temperature;BME280_humidity;BME280_pressure;Samples;Min_cycle;Max_cycle;Signal;HPM_P1;HPM_P2
2022/07/11 00:04:11;;;;;;;4.10;1.50;;;;;;;16.64;52.33;99111.13;235823;1201;138922;-56
2022/07/11 00:09:14;;;;;;;4.90;1.80;;;;;;;16.63;52.56;99110.87;235881;1203;139182;-57
2022/07/11 00:14:18;;;;;;;3.60;1.50;;;;;;;16.60;52.56;99108.98;235244;1201;138856;-54
2022/07/11 00:19:22;;;;;;;6.10;1.80;;;;;;;16.58;52.84;99104.02;235464;1203;138940;-55
2022/07/11 00:24:26;;;;;;;3.80;1.40;;;;;;;16.56;53.02;99102.69;235370;1203;138914;-54
2022/07/11 00:29:30;;;;;;;7.30;1.50;;;;;;;16.53;53.08;99114.91;235836;1201;138691;-56
2022/07/11 00:34:33;;;;;;;3.80;1.60;;;;;;;16.50;52.81;99110.70;235827;1201;139183;-56
2022/07/11 00:39:36;;;;;;;5.90;1.50;;;;;;;16.46;53.24;99107.83;235894;1203;138682;-56
2022/07/11 00:44:39;;;;;;;4.20;1.40;;;;;;;16.46;53.26;99105.55;235719;1201;139480;-53
2022/07/11 00:49:42;;;;;;;3.40;1.40;;;;;;;16.47;53.10;99106.29;235789;1201;138705;-55
2022/07/11 00:54:45;;;;;;;4.30;1.80;;;;;;;16.47;53.28;99105.95;235732;1202;139571;-53
2022/07/11 00:59:48;;;;;;;7.30;1.80;;;;;;;16.46;53.24;99102.51;235851;1201;139304;-54
2022/07/11 01:04:52;;;;;;;4.80;1.50;;;;;;;16.46;53.33;99098.93;235796;1204;139630;-56
2022/07/11 01:09:56;;;;;;;4.90;1.80;;;;;;;16.40;53.48;99104.41;235304;1202;138646;-59
2022/07/11 01:14:59;;;;;;;4.00;1.90;;;;;;;16.41;53.50;99113.34;235734;1203;138560;-57
2022/07/11 01:20:02;;;;;;;3.90;1.50;;;;;;;16.39;53.67;99106.20;235787;1201;138880;-59
2022/07/11 01:25:06;;;;;;;8.20;1.90;;;;;;;16.41;53.85;99114.73;235767;1201;138877;-58
2022/07/11 01:30:09;;;;;;;7.30;2.00;;;;;;;16.41;53.71;99111.65;235706;1203;139198;-55
2022/07/11 01:35:12;;;;;;;6.30;2.20;;;;;;;16.40;53.95;99112.12;235882;1202;138996;-58
2022/07/11 01:40:16;;;;;;;4.90;2.10;;;;;;;16.37;53.81;99110.20;235847;1203;140007;-58
2022/07/11 01:45:19;;;;;;;5.30;1.70;;;;;;;16.36;54.04;99116.27;235641;1201;138826;-57
2022/07/11 01:50:22;;;;;;;4.50;1.60;;;;;;;16.30;53.84;99113.52;235790;1203;138531;-57
2022/07/11 01:55:25;;;;;;;6.30;1.40;;;;;;;16.25;54.04;99112.16;235779;1201;139348;-57
2022/07/11 02:00:29;;;;;;;4.30;1.80;;;;;;;16.21;54.19;99110.89;235848;1201;138973;-57
2022/07/11 02:05:32;;;;;;;5.50;1.70;;;;;;;16.21;54.19;99101.77;235772;1203;139035;-57
2022/07/11 02:10:35;;;;;;;5.60;2.00;;;;;;;16.22;54.49;99101.31;235922;1201;138799;-58
2022/07/11 02:15:39;;;;;;;5.30;2.30;;;;;;;16.23;54.48;99102.96;235735;1203;139222;-60
2022/07/11 02:20:42;;;;;;;4.20;1.50;;;;;;;16.25;54.53;99107.10;235766;1201;139206;-60
2022/07/11 02:25:45;;;;;;;6.00;1.60;;;;;;;16.25;54.60;99106.55;235718;1203;138819;-58
2022/07/11 02:30:48;;;;;;;5.60;1.90;;;;;;;16.20;54.48;99103.41;235779;1201;139647;-58
2022/07/11 02:35:51;;;;;;;4.40;2.00;;;;;;;16.19;54.68;99108.01;235735;1203;138785;-57
2022/07/11 02:40:55;;;;;;;4.20;2.20;;;;;;;16.16;54.62;99109.70;235905;1200;138794;-58
2022/07/11 02:45:57;;;;;;;35.70;24.60;;;;;;;16.14;54.90;99114.89;235723;1203;139243;-56
2022/07/11 02:51:01;;;;;;;7.20;3.10;;;;;;;16.17;55.08;99108.92;235827;1202;138936;-50
2022/07/11 02:56:06;;;;;;;52.00;34.20;;;;;;;16.26;55.04;99111.30;235757;1201;138535;-54
2022/07/11 03:01:09;;;;;;;5.90;2.80;;;;;;;16.30;55.15;99110.96;235739;1201;139801;-54
2022/07/11 03:06:12;;;;;;;5.30;1.90;;;;;;;16.32;55.17;99110.27;235776;1203;138732;-54
2022/07/11 03:11:15;;;;;;;23.00;15.90;;;;;;;16.29;54.89;99109.99;235760;1203;139183;-56
2022/07/11 03:16:18;;;;;;;6.00;2.50;;;;;;;16.36;55.00;99110.90;235714;1201;139073;-59
2022/07/11 03:21:21;;;;;;;5.90;2.10;;;;;;;16.41;55.31;99108.52;235796;1203;139134;-58
2022/07/11 03:26:24;;;;;;;5.70;2.00;;;;;;;16.46;55.03;99115.92;234805;1203;138540;-60
2022/07/11 03:31:27;;;;;;;5.40;2.00;;;;;;;16.44;55.16;99114.32;235752;1201;139026;-59
2022/07/11 03:36:30;;;;;;;5.70;2.40;;;;;;;16.44;55.36;99123.62;235801;1200;139576;-59
2022/07/11 03:41:33;;;;;;;7.50;2.40;;;;;;;16.43;55.26;99118.54;235759;1203;139158;-59
2022/07/11 03:46:36;;;;;;;8.50;2.90;;;;;;;16.39;55.43;99123.17;235847;1202;138890;-60
2022/07/11 03:51:39;;;;;;;7.20;2.60;;;;;;;16.33;55.16;99121.83;235835;1201;139522;-59
2022/07/11 03:56:42;;;;;;;20.30;12.20;;;;;;;16.34;55.55;99128.95;235855;1201;139202;-57
2022/07/11 04:01:45;;;;;;;7.50;2.80;;;;;;;16.28;55.39;99132.98;235883;1201;139900;-57
2022/07/11 04:06:48;;;;;;;6.50;2.70;;;;;;;16.26;55.55;99130.70;235757;1201;139176;-58
2022/07/11 04:11:51;;;;;;;10.30;4.00;;;;;;;16.25;55.92;99130.08;235806;1202;138839;-60
2022/07/11 04:16:54;;;;;;;7.90;2.90;;;;;;;16.28;55.87;99135.33;235794;1203;138461;-60
2022/07/11 04:21:58;;;;;;;8.60;2.40;;;;;;;16.25;55.86;99134.11;235777;1201;139217;-58
2022/07/11 04:27:01;;;;;;;8.50;2.40;;;;;;;16.26;56.08;99132.94;235652;1203;138851;-58
2022/07/11 04:32:05;;;;;;;5.90;2.50;;;;;;;16.28;56.03;99136.91;235778;1203;139259;-58
2022/07/11 04:37:09;;;;;;;8.00;2.90;;;;;;;16.35;56.25;99135.65;235767;1203;139037;-58
2022/07/11 04:42:12;;;;;;;7.60;2.50;;;;;;;16.41;56.22;99134.83;235642;1202;139214;-58
2022/07/11 04:47:15;;;;;;;6.50;2.80;;;;;;;16.45;56.44;99138.43;235900;1201;139800;-57
2022/07/11 04:52:18;;;;;;;7.00;3.20;;;;;;;16.45;56.47;99136.60;235797;1203;139974;-56
2022/07/11 04:57:21;;;;;;;7.30;2.70;;;;;;;16.48;56.60;99148.16;235687;1200;138688;-54
2022/07/11 05:02:24;;;;;;;7.40;3.00;;;;;;;16.48;56.47;99143.38;235853;1201;139205;-56
2022/07/11 05:07:27;;;;;;;10.00;2.80;;;;;;;16.48;56.74;99147.66;235725;1201;138575;-55
2022/07/11 05:12:30;;;;;;;11.00;3.00;;;;;;;16.47;56.58;99146.50;235749;1200;139273;-54
2022/07/11 05:17:34;;;;;;;8.20;2.90;;;;;;;16.49;56.62;99145.95;235697;1202;139560;-55
2022/07/11 05:22:36;;;;;;;9.30;3.40;;;;;;;16.47;56.71;99147.90;235881;1203;138916;-57
2022/07/11 05:27:39;;;;;;;8.00;2.80;;;;;;;16.48;56.98;99144.80;235815;1200;138674;-58
2022/07/11 05:32:42;;;;;;;5.30;2.60;;;;;;;16.50;56.84;99152.65;235744;1203;139035;-58
2022/07/11 05:37:45;;;;;;;6.00;2.80;;;;;;;16.50;57.08;99151.55;235790;1203;139123;-56
2022/07/11 05:42:48;;;;;;;5.80;2.50;;;;;;;16.56;57.07;99159.52;235718;1203;139227;-57
2022/07/11 05:47:51;;;;;;;5.30;2.20;;;;;;;16.66;57.13;99166.68;235286;1203;138388;-59
2022/07/11 05:52:57;;;;;;;4.40;2.20;;;;;;;16.69;57.19;99167.33;235820;1203;139977;-61
2022/07/11 05:58:00;;;;;;;6.60;2.40;;;;;;;16.73;57.35;99167.15;235788;1202;138675;-61
2022/07/11 06:03:03;;;;;;;28.10;17.40;;;;;;;16.79;57.51;99175.65;235818;1200;138368;-63
2022/07/11 06:13:29;;;;;;;7.90;2.70;;;;;;;16.77;57.23;99173.59;235638;1199;138942;-61
2022/07/11 06:18:33;;;;;;;6.60;2.60;;;;;;;16.80;57.26;99174.66;235746;1202;138149;-59
2022/07/11 06:23:36;;;;;;;8.20;2.20;;;;;;;16.82;57.22;99174.31;235757;1203;138970;-60
2022/07/11 06:28:39;;;;;;;5.40;2.00;;;;;;;16.92;57.30;99172.02;235987;1200;140382;-59
2022/07/11 06:33:42;;;;;;;19.20;10.10;;;;;;;17.01;57.20;99163.73;235777;1201;138650;-60
2022/07/11 06:38:46;;;;;;;4.40;2.20;;;;;;;17.14;57.44;99165.79;235782;1203;139528;-60
2022/07/11 06:43:49;;;;;;;7.80;2.20;;;;;;;17.27;57.09;99173.06;235748;1202;139674;-58
2022/07/11 06:48:52;;;;;;;7.00;2.00;;;;;;;17.37;57.03;99170.81;235813;1201;138885;-57
2022/07/11 06:53:55;;;;;;;7.70;2.20;;;;;;;17.40;56.82;99167.34;235404;1202;138615;-59
2022/07/11 06:58:58;;;;;;;6.70;1.90;;;;;;;17.40;56.63;99168.27;235327;1203;138443;-60
2022/07/11 07:04:01;;;;;;;9.10;2.30;;;;;;;17.39;56.58;99169.23;235718;1201;138870;-59
2022/07/11 07:09:04;;;;;;;7.10;2.00;;;;;;;17.49;56.77;99169.58;235760;1201;138837;-57
2022/07/11 07:14:07;;;;;;;6.10;1.90;;;;;;;17.52;56.48;99163.73;235708;1203;138739;-61
2022/07/11 07:19:10;;;;;;;8.50;2.10;;;;;;;17.54;56.36;99156.23;235770;1201;138955;-58
2022/07/11 07:24:13;;;;;;;6.30;1.80;;;;;;;17.63;56.50;99155.05;235707;1203;138761;-60
2022/07/11 07:29:20;;;;;;;5.30;1.80;;;;;;;17.72;56.13;99152.60;235815;1202;139232;-58
2022/07/11 07:34:23;;;;;;;6.90;2.00;;;;;;;17.84;56.17;99156.41;235694;1201;138337;-61
2022/07/11 07:39:26;;;;;;;4.00;1.70;;;;;;;17.87;55.81;99147.38;235685;1203;139016;-61
2022/07/11 07:44:29;;;;;;;4.90;1.80;;;;;;;18.02;55.51;99144.55;235690;1203;139112;-60
2022/07/11 07:49:32;;;;;;;6.50;1.90;;;;;;;18.08;55.25;99141.84;235618;1201;139113;-59
2022/07/11 07:54:35;;;;;;;9.50;1.90;;;;;;;18.13;55.37;99146.24;235760;1201;139306;-58
2022/07/11 07:59:38;;;;;;;5.10;2.00;;;;;;;18.18;55.16;99145.08;235015;1202;138470;-58
2022/07/11 08:04:42;;;;;;;8.20;2.30;;;;;;;18.15;54.77;99147.82;235827;1201;138708;-57
2022/07/11 08:09:45;;;;;;;7.00;2.50;;;;;;;18.03;54.80;99135.63;235739;1201;138667;-56
2022/07/11 08:14:48;;;;;;;9.30;2.10;;;;;;;18.02;54.77;99127.02;235766;1201;138607;-56
2022/07/11 08:19:56;;;;;;;8.80;2.20;;;;;;;18.04;54.36;99128.39;235720;1203;138716;-55
2022/07/11 08:24:59;;;;;;;5.50;2.00;;;;;;;18.15;54.65;99120.69;235901;1201;139170;-56
2022/07/11 08:30:03;;;;;;;7.10;2.20;;;;;;;18.33;54.34;99108.60;235783;1203;138838;-57
2022/07/11 08:35:06;;;;;;;7.40;2.20;;;;;;;18.50;54.35;99102.87;235826;1200;138709;-58
2022/07/11 08:40:10;;;;;;;8.80;2.10;;;;;;;18.66;54.14;99085.02;235779;1201;138900;-59
2022/07/11 08:45:15;;;;;;;8.60;1.90;;;;;;;18.87;53.60;99071.41;235747;1203;139394;-57
2022/07/11 08:50:21;;;;;;;4.30;1.60;;;;;;;19.04;53.33;99066.72;235365;1201;138988;-57
2022/07/11 08:55:25;;;;;;;56.70;42.00;;;;;;;19.15;52.87;99059.67;235786;1202;138762;-59
2022/07/11 09:00:28;;;;;;;7.60;3.10;;;;;;;19.14;52.25;99054.40;235736;1201;139449;-57
2022/07/11 09:05:32;;;;;;;4.90;1.70;;;;;;;19.19;52.19;99061.34;235725;1202;138672;-57
2022/07/11 09:10:39;;;;;;;5.10;1.80;;;;;;;19.24;51.89;99058.98;235414;1201;139155;-58
2022/07/11 09:15:44;;;;;;;4.70;1.70;;;;;;;19.31;50.87;99053.45;235701;1203;138905;-58
2022/07/11 09:26:31;;;;;;;8.50;1.30;;;;;;;19.48;49.89;99075.02;235768;1201;138698;-58
2022/07/11 09:31:35;;;;;;;6.80;1.60;;;;;;;19.34;49.14;99064.63;235713;1202;138588;-57
2022/07/11 09:36:39;;;;;;;6.50;1.30;;;;;;;19.19;48.86;99064.30;235677;1202;138893;-58
2022/07/11 09:41:44;;;;;;;8.10;1.20;;;;;;;19.10;49.01;99058.36;235718;1200;138847;-56
2022/07/11 09:46:51;;;;;;;7.90;1.40;;;;;;;19.08;48.98;99057.70;235881;1201;138942;-58
2022/07/11 09:51:55;;;;;;;6.80;1.30;;;;;;;19.07;49.05;99060.11;235691;1201;138524;-57
2022/07/11 09:56:58;;;;;;;4.20;1.00;;;;;;;19.08;48.70;99054.43;235697;1202;138679;-58
2022/07/11 10:02:01;;;;;;;4.40;1.20;;;;;;;19.26;47.88;99044.23;235768;1202;138269;-57
2022/07/11 10:07:04;;;;;;;7.20;2.70;;;;;;;19.56;47.57;99050.24;235634;1201;138873;-57
2022/07/11 10:12:08;;;;;;;3.10;0.60;;;;;;;19.62;47.35;99081.58;235694;1200;139232;-55
2022/07/11 10:17:21;;;;;;;3.90;1.00;;;;;;;19.30;47.16;99096.86;235826;1202;139355;-56
2022/07/11 10:22:33;;;;;;;2.60;0.60;;;;;;;18.99;47.11;99080.50;235532;1200;139467;-59
2022/07/11 10:27:59;;;;;;;1.50;0.60;;;;;;;18.84;47.17;99070.42;235828;1199;138774;-56
2022/07/11 10:33:06;;;;;;;3.80;1.00;;;;;;;18.67;47.22;99068.59;236008;1199;138634;-59
2022/07/11 10:38:09;;;;;;;4.00;0.70;;;;;;;18.47;47.72;99073.34;235827;1201;138950;-58
2022/07/11 10:43:22;;;;;;;1.50;0.70;;;;;;;18.38;48.07;99072.90;236001;1201;138616;-55
2022/07/11 10:48:27;;;;;;;1.40;0.40;;;;;;;18.44;48.31;99075.30;235805;1200;139153;-57
2022/07/11 10:53:34;;;;;;;1.10;0.30;;;;;;;18.54;48.08;99081.13;235776;1199;138988;-58
2022/07/11 10:58:42;;;;;;;2.30;0.30;;;;;;;18.59;47.85;99079.57;235874;1200;139632;-58
2022/07/11 11:03:46;;;;;;;1.60;0.60;;;;;;;18.68;47.99;99083.77;235873;1200;139468;-59
2022/07/11 11:08:49;;;;;;;2.80;0.90;;;;;;;19.00;48.27;99084.38;235857;1201;139588;-58
2022/07/11 11:14:18;;;;;;;3.60;0.70;;;;;;;19.31;48.01;99095.95;236045;1200;138726;-59
2022/07/11 11:19:46;;;;;;;2.90;0.80;;;;;;;19.48;47.82;99094.65;235811;1200;139252;-59
2022/07/11 11:24:52;;;;;;;3.40;1.00;;;;;;;19.60;47.57;99103.64;235785;1200;139116;-59
2022/07/11 11:30:15;;;;;;;3.30;0.80;;;;;;;19.52;47.22;99119.77;235698;1200;138686;-59
2022/07/11 11:35:18;;;;;;;2.70;0.50;;;;;;;19.29;47.19;99143.20;235777;1200;139947;-56
2022/07/11 11:40:30;;;;;;;3.70;0.50;;;;;;;18.94;47.56;99152.20;235891;1201;138922;-57
2022/07/11 11:45:34;;;;;;;2.30;0.30;;;;;;;18.57;47.94;99159.17;235777;1200;139310;-58
2022/07/11 11:50:37;;;;;;;2.40;0.60;;;;;;;18.33;48.68;99154.05;235789;1200;139923;-58
2022/07/11 11:55:40;;;;;;;1.50;0.60;;;;;;;18.09;49.18;99148.73;235742;1199;139498;-55
2022/07/11 12:00:54;;;;;;;6.80;2.70;;;;;;;17.89;49.89;99139.66;235968;1200;139029;-58
2022/07/11 12:06:12;;;;;;;2.00;0.70;;;;;;;17.73;50.49;99138.84;235767;1201;139087;-58
2022/07/11 12:11:15;;;;;;;2.10;0.80;;;;;;;17.72;51.06;99144.86;235873;1201;139341;-58
2022/07/11 12:21:50;;;;;;;3.80;0.60;;;;;;;17.91;51.62;99145.17;235637;1199;139048;-58
2022/07/11 12:26:54;;;;;;;1.90;0.70;;;;;;;18.00;51.19;99140.92;235772;1199;138655;-59
2022/07/11 12:31:59;;;;;;;3.90;0.80;;;;;;;18.03;51.11;99140.16;235782;1199;138556;-59
2022/07/11 12:37:08;;;;;;;2.40;0.90;;;;;;;18.22;51.44;99141.43;235704;1199;138600;-59
2022/07/11 12:42:35;;;;;;;1.50;0.50;;;;;;;18.45;51.10;99136.46;235842;1200;138705;-59
2022/07/11 12:47:44;;;;;;;1.70;0.60;;;;;;;18.65;50.86;99133.86;235722;1200;139025;-58
2022/07/11 12:52:50;;;;;;;1.80;0.50;;;;;;;18.86;50.81;99129.44;235850;1201;139141;-59
2022/07/11 12:58:01;;;;;;;2.70;0.80;;;;;;;19.12;50.75;99133.95;235808;1200;139241;-60
2022/07/11 13:03:05;;;;;;;3.80;0.70;;;;;;;19.39;50.04;99131.88;235775;1200;139319;-58
2022/07/11 13:08:42;;;;;;;1.90;0.50;;;;;;;19.44;49.36;99127.57;235701;1199;139336;-58
2022/07/11 13:13:48;;;;;;;3.00;0.40;;;;;;;19.44;49.13;99130.70;235802;1200;139382;-59
2022/07/11 13:18:51;;;;;;;3.10;0.90;;;;;;;19.42;48.82;99137.35;235805;1200;138992;-59
2022/07/11 13:23:54;;;;;;;1.40;0.80;;;;;;;19.48;49.45;99140.00;235754;1201;138988;-57
2022/07/11 13:28:58;;;;;;;2.90;1.00;;;;;;;19.47;49.93;99138.87;235918;1201;138800;-59
2022/07/11 13:34:01;;;;;;;1.80;0.90;;;;;;;19.53;50.48;99136.73;235675;1199;138665;-58
2022/07/11 13:39:04;;;;;;;5.00;1.30;;;;;;;19.48;50.35;99139.09;235833;1199;138774;-56
2022/07/11 13:44:07;;;;;;;70.20;48.10;;;;;;;19.58;50.50;99130.19;235795;1200;138893;-58
2022/07/11 13:49:12;;;;;;;8.10;2.50;;;;;;;20.27;50.88;99117.18;235677;1201;139493;-55
2022/07/11 13:54:15;;;;;;;4.60;1.00;;;;;;;21.01;50.29;99098.13;235838;1199;139765;-59
2022/07/11 13:59:20;;;;;;;1.70;0.60;;;;;;;21.32;49.24;99087.61;235946;1200;138778;-56
2022/07/11 14:04:23;;;;;;;5.00;0.70;;;;;;;21.62;48.52;99092.42;235870;1200;140653;-59
2022/07/11 14:09:31;;;;;;;2.10;0.50;;;;;;;22.01;47.71;99120.33;235760;1200;138239;-55
2022/07/11 14:14:35;;;;;;;3.20;0.40;;;;;;;22.21;46.82;99122.73;235789;1200;140050;-59
2022/07/11 14:19:38;;;;;;;4.50;0.40;;;;;;;22.04;46.09;99115.55;235666;1200;138936;-58
2022/07/11 14:24:41;;;;;;;1.50;0.40;;;;;;;21.98;45.83;99108.19;235821;1200;138977;-58
2022/07/11 14:29:45;;;;;;;3.10;0.70;;;;;;;22.14;45.83;99107.89;235785;1200;139466;-58
2022/07/11 14:34:48;;;;;;;2.50;0.40;;;;;;;22.34;45.48;99116.03;236007;1200;138479;-57
2022/07/11 14:39:52;;;;;;;24.20;20.70;;;;;;;22.29;44.51;99126.56;235788;1200;140264;-60
2022/07/11 14:44:55;;;;;;;3.30;0.50;;;;;;;21.80;43.51;99134.11;235824;1200;139022;-58
2022/07/11 14:49:58;;;;;;;0.60;0.30;;;;;;;21.29;43.41;99141.13;235791;1199;139611;-59
2022/07/11 14:55:01;;;;;;;1.40;0.30;;;;;;;20.95;43.75;99150.98;235677;1200;138946;-58
2022/07/11 15:00:06;;;;;;;2.50;0.50;;;;;;;20.62;44.05;99185.94;235805;1200;139010;-59
2022/07/11 15:05:10;;;;;;;4.70;0.30;;;;;;;20.26;44.65;99214.92;235908;1200;138677;-56
2022/07/11 15:15:34;;;;;;;8.30;2.30;;;;;;;19.01;45.52;99233.73;235805;1200;138692;-58
2022/07/11 15:20:37;;;;;;;3.90;0.80;;;;;;;18.48;46.62;99228.66;235848;1200;138433;-59
2022/07/11 15:25:40;;;;;;;3.30;0.60;;;;;;;18.02;47.59;99215.23;236232;1200;138819;-59
2022/07/11 15:30:43;;;;;;;2.30;0.60;;;;;;;17.72;48.52;99214.30;236281;1198;138909;-59
2022/07/11 15:35:52;;;;;;;309.10;226.90;;;;;;;17.56;49.82;99227.46;236292;1200;139277;-58
2022/07/11 15:40:55;;;;;;;15.00;9.70;;;;;;;17.56;50.29;99226.39;235764;1200;139290;-56
2022/07/11 15:45:59;;;;;;;2.70;1.40;;;;;;;17.59;50.53;99227.36;235764;1200;138582;-59
2022/07/11 15:51:03;;;;;;;1.50;0.60;;;;;;;17.70;51.19;99215.55;235710;1199;138609;-59
2022/07/11 15:56:06;;;;;;;224.20;196.80;;;;;;;17.84;51.87;99219.40;235819;1200;138617;-60
2022/07/11 16:01:10;;;;;;;10.30;8.00;;;;;;;17.97;52.13;99226.17;236012;1200;139530;-58
2022/07/11 16:06:13;;;;;;;3.70;0.90;;;;;;;18.04;52.09;99225.36;235736;1200;138945;-58
2022/07/11 16:11:16;;;;;;;1.20;0.50;;;;;;;18.05;52.09;99232.40;235862;1201;138469;-58
2022/07/11 16:16:21;;;;;;;2.10;0.80;;;;;;;18.08;52.06;99228.17;235997;1200;138846;-59
2022/07/11 16:21:27;;;;;;;2.30;0.60;;;;;;;18.11;52.16;99228.98;235865;1199;139013;-58
2022/07/11 16:26:30;;;;;;;282.00;207.10;;;;;;;18.16;52.43;99221.55;235716;1199;139187;-58
2022/07/11 16:31:33;;;;;;;17.70;13.40;;;;;;;18.24;52.85;99208.48;235754;1199;139026;-55
2022/07/11 16:36:37;;;;;;;2.30;1.30;;;;;;;18.32;52.93;99209.73;235870;1199;139110;-59
2022/07/11 16:47:02;;;;;;;1.60;0.70;;;;;;;18.37;52.85;99186.98;236128;1200;138701;-57
2022/07/11 16:52:06;;;;;;;2.20;0.60;;;;;;;18.34;53.11;99180.21;235814;1199;138911;-57
2022/07/11 16:57:09;;;;;;;0.90;0.60;;;;;;;18.32;52.90;99186.52;235876;1200;138819;-59
2022/07/11 17:02:13;;;;;;;3.10;0.70;;;;;;;18.31;52.86;99193.63;235545;1200;138470;-56
2022/07/11 17:07:16;;;;;;;3.40;2.80;;;;;;;18.26;52.95;99204.83;235790;1201;139204;-57
2022/07/11 17:12:19;;;;;;;161.70;132.70;;;;;;;18.20;52.92;99214.90;235735;1200;138782;-58
2022/07/11 17:17:22;;;;;;;8.10;4.60;;;;;;;18.21;53.48;99221.13;235898;1200;139713;-58
2022/07/11 17:22:25;;;;;;;2.50;1.40;;;;;;;18.20;53.74;99227.64;235803;1198;209383;-56
2022/07/11 17:27:28;;;;;;;3.10;1.20;;;;;;;18.14;53.70;99225.89;235758;1200;138829;-58
2022/07/11 17:32:31;;;;;;;5.70;1.80;;;;;;;18.11;53.86;99225.75;235763;1200;138859;-58
2022/07/11 17:37:35;;;;;;;1.80;0.80;;;;;;;18.04;54.52;99216.38;235859;1199;138591;-57
2022/07/11 17:42:38;;;;;;;4.00;2.20;;;;;;;17.98;54.78;99213.29;235735;1201;139401;-58
2022/07/11 17:47:41;;;;;;;4.10;1.10;;;;;;;17.95;55.00;99210.89;235763;1199;138790;-56
2022/07/11 17:52:46;;;;;;;3.10;1.10;;;;;;;17.93;55.20;99209.30;235968;1199;138622;-57
2022/07/11 17:57:50;;;;;;;3.50;1.20;;;;;;;17.85;55.54;99203.41;235737;1199;139120;-57
2022/07/11 18:02:55;;;;;;;0.60;0.50;;;;;;;17.72;55.56;99212.23;235631;1200;138735;-57
2022/07/11 18:07:58;;;;;;;0.40;0.30;;;;;;;17.49;55.00;99218.39;235851;1200;138756;-58
2022/07/11 18:13:01;;;;;;;1.40;0.40;;;;;;;17.21;54.63;99228.71;235797;1200;138964;-58
2022/07/11 18:18:05;;;;;;;1.30;0.40;;;;;;;16.99;54.61;99227.21;235674;1200;138395;-59
2022/07/11 18:23:08;;;;;;;0.30;0.20;;;;;;;16.82;54.98;99223.24;235839;1200;139374;-58
2022/07/11 18:28:10;;;;;;;2.80;0.30;;;;;;;16.65;54.67;99220.20;235769;1199;139241;-58
2022/07/11 18:33:13;;;;;;;2.20;0.80;;;;;;;16.53;55.26;99229.40;235801;1200;138553;-56
2022/07/11 18:38:16;;;;;;;2.40;0.50;;;;;;;16.44;55.29;99235.53;235871;1200;138762;-59
2022/07/11 18:43:19;;;;;;;1.20;0.40;;;;;;;16.43;55.66;99232.59;235735;1199;138799;-56
2022/07/11 18:48:23;;;;;;;2.90;0.50;;;;;;;16.38;55.68;99236.40;235794;1200;140799;-58
2022/07/11 18:53:26;;;;;;;1.00;0.40;;;;;;;16.36;56.16;99242.84;235905;1200;139396;-58
2022/07/11 18:58:31;;;;;;;1.10;0.30;;;;;;;16.37;56.32;99244.35;235855;1200;138946;-58
2022/07/11 19:03:35;;;;;;;0.60;0.40;;;;;;;16.43;56.32;99244.77;235869;1199;139177;-58
2022/07/11 19:08:38;;;;;;;2.60;0.50;;;;;;;16.42;56.18;99254.87;235559;1200;138953;-58
2022/07/11 19:13:41;;;;;;;2.70;0.70;;;;;;;16.35;56.54;99261.91;235761;1199;139058;-55
2022/07/11 19:18:48;;;;;;;3.00;0.60;;;;;;;16.27;56.48;99266.30;235854;1200;139044;-56
2022/07/11 19:23:54;;;;;;;2.60;0.60;;;;;;;16.18;56.56;99264.04;235641;1200;138783;-56
2022/07/11 19:28:57;;;;;;;2.20;0.50;;;;;;;16.04;56.69;99269.27;235840;1198;138673;-58
2022/07/11 19:34:00;;;;;;;30.20;27.00;;;;;;;15.97;57.09;99272.73;236170;1200;138839;-58
2022/07/11 19:39:03;;;;;;;1.80;1.10;;;;;;;15.99;57.56;99268.05;235801;1199;139589;-56
2022/07/11 19:44:07;;;;;;;2.50;1.00;;;;;;;15.98;57.40;99276.38;235783;1200;139613;-57
2022/07/11 19:49:10;;;;;;;4.10;1.00;;;;;;;15.91;57.40;99277.48;235652;1201;141394;-57
2022/07/11 19:59:35;;;;;;;1.80;1.20;;;;;;;15.78;57.64;99276.91;235810;1199;139221;-59
2022/07/11 20:04:38;;;;;;;2.70;1.10;;;;;;;15.66;57.61;99273.21;236020;1200;139247;-54
2022/07/11 20:09:41;;;;;;;3.00;1.40;;;;;;;15.54;58.06;99268.74;235751;1199;139367;-56
2022/07/11 20:14:44;;;;;;;1.90;1.10;;;;;;;15.45;58.30;99270.22;235749;1200;138978;-57
2022/07/11 20:19:48;;;;;;;5.30;1.40;;;;;;;15.35;58.30;99270.27;235725;1201;140471;-58
2022/07/11 20:24:51;;;;;;;3.50;1.50;;;;;;;15.31;58.59;99270.33;235800;1201;138973;-57
2022/07/11 20:29:54;;;;;;;4.30;1.40;;;;;;;15.31;58.80;99265.34;235833;1200;138898;-58
2022/07/11 20:34:57;;;;;;;5.80;1.40;;;;;;;15.29;58.88;99269.64;235938;1200;138755;-58
2022/07/11 20:40:00;;;;;;;1.80;1.00;;;;;;;15.23;59.01;99271.89;235888;1200;138834;-57
2022/07/11 20:45:04;;;;;;;2.40;1.30;;;;;;;15.21;59.07;99268.69;235858;1200;138755;-59
2022/07/11 20:50:07;;;;;;;3.20;1.80;;;;;;;15.20;58.95;99279.13;235863;1199;138977;-57
2022/07/11 20:55:10;;;;;;;4.10;2.40;;;;;;;15.14;59.19;99276.87;235719;1200;139634;-57
2022/07/11 21:00:14;;;;;;;3.30;1.40;;;;;;;15.08;59.31;99273.92;235776;1201;138990;-58
2022/07/11 21:05:17;;;;;;;5.30;2.10;;;;;;;15.12;59.51;99278.23;235874;1200;139510;-59
2022/07/11 21:10:20;;;;;;;7.30;2.00;;;;;;;15.13;59.58;99279.28;235777;1199;140199;-58
2022/07/11 21:15:23;;;;;;;3.20;1.90;;;;;;;15.11;59.69;99287.25;235805;1200;138596;-58
2022/07/11 21:20:26;;;;;;;5.40;1.80;;;;;;;15.08;59.87;99290.02;235844;1200;139138;-58
2022/07/11 21:25:29;;;;;;;6.90;1.90;;;;;;;15.04;60.00;99291.77;235941;1200;139398;-57
2022/07/11 21:30:32;;;;;;;5.00;2.60;;;;;;;15.01;60.17;99293.97;235840;1200;138988;-56
2022/07/11 21:35:35;;;;;;;4.50;2.20;;;;;;;14.97;60.34;99299.98;235254;1201;138699;-57
2022/07/11 21:40:38;;;;;;;7.40;2.50;;;;;;;14.97;60.49;99299.84;235774;1199;139311;-58
2022/07/11 21:45:41;;;;;;;4.70;2.40;;;;;;;15.02;60.70;99297.27;235802;1200;138705;-55
2022/07/11 21:50:51;;;;;;;4.00;2.20;;;;;;;15.10;60.91;99299.91;235825;1200;138911;-56
2022/07/11 21:55:54;;;;;;;4.90;2.50;;;;;;;15.06;60.90;99297.65;235981;1200;139314;-59
2022/07/11 22:00:57;;;;;;;4.60;2.10;;;;;;;15.05;60.95;99300.27;235854;1200;139211;-58
2022/07/11 22:06:00;;;;;;;3.90;1.60;;;;;;;15.07;61.05;99305.10;235661;1200;139403;-57
2022/07/11 22:11:03;;;;;;;4.40;2.50;;;;;;;15.04;61.13;99304.80;235944;1200;139808;-56
2022/07/11 22:16:06;;;;;;;3.60;1.80;;;;;;;15.07;61.21;99308.31;235874;1199;139647;-58
2022/07/11 22:21:09;;;;;;;3.50;1.80;;;;;;;15.13;61.20;99314.13;235760;1200;139129;-58
2022/07/11 22:26:18;;;;;;;4.90;1.90;;;;;;;15.14;61.40;99309.23;235871;1201;139085;-56
2022/07/11 22:31:21;;;;;;;2.80;1.80;;;;;;;15.14;61.49;99305.14;236004;1200;139016;-57
2022/07/11 22:36:25;;;;;;;5.30;2.10;;;;;;;15.12;61.36;99312.42;235854;1200;138823;-58
2022/07/11 22:41:28;;;;;;;4.70;2.10;;;;;;;15.09;61.55;99312.14;235904;1200;138831;-57
2022/07/11 22:46:31;;;;;;;2.60;1.70;;;;;;;15.05;61.58;99314.40;236066;1200;139000;-58
2022/07/11 22:51:54;;;;;;;6.60;2.40;;;;;;;15.10;61.76;99314.56;235955;1199;139292;-58
2022/07/11 22:56:57;;;;;;;2.80;1.90;;;;;;;15.14;61.82;99313.17;235946;1201;139189;-58
2022/07/11 23:02:00;;;;;;;4.30;1.70;;;;;;;15.22;61.96;99308.31;235842;1200;139411;-54
2022/07/11 23:07:03;;;;;;;4.70;1.80;;;;;;;15.31;62.05;99315.92;235890;1199;139589;-58
2022/07/11 23:12:06;;;;;;;2.60;1.60;;;;;;;15.30;61.80;99309.02;235885;1201;140954;-56
2022/07/11 23:17:10;;;;;;;2.30;1.40;;;;;;;15.30;61.83;99311.03;235963;1200;138924;-56
2022/07/11 23:22:13;;;;;;;7.10;1.70;;;;;;;15.30;61.91;99307.64;235910;1201;140071;-58
2022/07/11 23:27:16;;;;;;;3.70;1.50;;;;;;;15.31;62.02;99297.19;236070;1200;139391;-58
2022/07/11 23:32:19;;;;;;;5.10;1.80;;;;;;;15.37;61.99;99298.86;235893;1200;139300;-58
2022/07/11 23:37:22;;;;;;;4.90;2.30;;;;;;;15.42;62.07;99296.88;235852;1200;138332;-59
2022/07/11 23:42:25;;;;;;;3.50;1.90;;;;;;;15.41;62.11;99295.30;235650;1200;138375;-58
2022/07/11 23:47:28;;;;;;;6.10;2.00;;;;;;;15.39;62.16;99301.58;236047;1200;139114;-58
2022/07/11 23:52:31;;;;;;;3.50;1.70;;;;;;;15.41;62.11;99293.55;235934;1200;139093;-58